createdAt,value
2019-05-18T00:00:36.235Z,17.10
2019-05-18T00:03:04.894Z,16.99
2019-05-18T00:05:33.384Z,17.06
2019-05-18T00:08:01.951Z,16.99
2019-05-18T00:10:30.529Z,17.16
2019-05-18T00:12:59.113Z,17.02
2019-05-18T00:15:27.731Z,17.22
2019-05-18T00:17:56.415Z,17.29
2019-05-18T00:20:25.005Z,17.41
2019-05-18T00:22:53.504Z,17.50
2019-05-18T00:25:22.103Z,17.62
2019-05-18T00:27:50.696Z,17.62
2019-05-18T00:30:21.165Z,17.61
2019-05-18T00:32:49.829Z,17.51
2019-05-18T00:35:18.313Z,17.49
2019-05-18T00:37:46.897Z,17.33
2019-05-18T00:40:15.585Z,17.26
2019-05-18T00:42:44.167Z,17.24
2019-05-18T00:45:12.909Z,17.29
2019-05-18T00:47:42.405Z,17.27
2019-05-18T00:50:11.768Z,17.39
2019-05-18T00:52:40.245Z,17.59
2019-05-18T00:55:09.025Z,17.55
2019-05-18T00:57:37.620Z,17.15
2019-05-18T01:00:06.558Z,17.16
2019-05-18T01:02:35.250Z,17.10
2019-05-18T01:05:04.565Z,17.20
2019-05-18T01:07:33.048Z,17.01
2019-05-18T01:10:01.663Z,17.21
2019-05-18T01:12:30.239Z,17.28
2019-05-18T01:14:58.735Z,17.20
2019-05-18T01:17:27.237Z,16.98
2019-05-18T01:19:55.613Z,17.04
2019-05-18T01:22:24.097Z,17.00
2019-05-18T01:24:52.642Z,17.17
2019-05-18T01:27:21.131Z,17.07
2019-05-18T01:29:49.585Z,16.99
2019-05-18T01:32:18.290Z,17.02
2019-05-18T01:34:46.944Z,16.75
2019-05-18T01:37:15.459Z,16.81
2019-05-18T01:39:43.936Z,16.82
2019-05-18T01:42:12.507Z,16.90
2019-05-18T01:44:41.015Z,16.68
2019-05-18T01:47:09.396Z,16.71
2019-05-18T01:49:38.006Z,16.60
2019-05-18T01:52:06.514Z,16.72
2019-05-18T01:54:35.012Z,16.62
2019-05-18T01:57:03.497Z,16.80
2019-05-18T01:59:32.105Z,16.73
2019-05-18T02:02:00.666Z,16.87
2019-05-18T02:04:29.182Z,16.78
2019-05-18T02:06:57.607Z,16.68
2019-05-18T02:09:26.268Z,16.59
2019-05-18T02:11:54.650Z,16.60
2019-05-18T02:14:23.138Z,16.61
2019-05-18T02:16:51.535Z,16.55
2019-05-18T02:19:20.153Z,16.47
2019-05-18T02:21:48.556Z,16.33
2019-05-18T02:24:16.944Z,16.38
2019-05-18T02:26:45.334Z,16.47
2019-05-18T02:29:13.953Z,16.38
2019-05-18T02:31:42.458Z,16.41
2019-05-18T02:34:10.944Z,16.41
2019-05-18T02:36:39.445Z,16.42
2019-05-18T02:39:08.645Z,16.31
2019-05-18T02:41:37.215Z,16.23
2019-05-18T02:44:05.924Z,16.28
2019-05-18T02:46:34.266Z,16.32
2019-05-18T02:49:02.852Z,16.23
2019-05-18T02:51:31.436Z,16.14
2019-05-18T02:53:59.812Z,16.24
2019-05-18T02:56:28.487Z,16.24
2019-05-18T02:58:56.979Z,16.12
2019-05-18T03:01:25.515Z,16.12
2019-05-18T03:03:53.918Z,16.23
2019-05-18T03:06:22.439Z,16.08
2019-05-18T03:08:50.927Z,16.19
2019-05-18T03:11:19.320Z,16.20
2019-05-18T03:13:47.803Z,16.23
2019-05-18T03:16:16.516Z,16.04
2019-05-18T03:18:45.109Z,16.07
2019-05-18T03:21:13.690Z,16.01
2019-05-18T03:23:42.179Z,16.01
2019-05-18T03:26:10.563Z,15.93
2019-05-18T03:28:39.155Z,15.95
2019-05-18T03:31:07.629Z,16.06
2019-05-18T03:33:36.423Z,16.14
2019-05-18T03:36:04.875Z,16.10
2019-05-18T03:38:33.570Z,15.86
2019-05-18T03:41:02.160Z,15.91
2019-05-18T03:43:30.661Z,16.10
2019-05-18T03:45:59.226Z,16.25
2019-05-18T03:48:27.743Z,16.20
2019-05-18T03:50:56.231Z,16.15
2019-05-18T03:53:24.733Z,16.23
2019-05-18T03:55:53.343Z,16.29
2019-05-18T03:58:21.949Z,16.22
2019-05-18T04:00:50.463Z,16.39
2019-05-18T04:03:18.852Z,16.28
2019-05-18T04:05:47.428Z,16.20
2019-05-18T04:08:16.022Z,16.42
2019-05-18T04:10:44.428Z,16.53
2019-05-18T04:13:12.996Z,16.43
2019-05-18T04:15:41.598Z,16.37
2019-05-18T04:18:10.243Z,16.49
2019-05-18T04:20:38.762Z,16.51
2019-05-18T04:23:07.244Z,16.46
2019-05-18T04:25:35.647Z,16.51
2019-05-18T04:28:04.248Z,16.48
2019-05-18T04:30:32.724Z,16.46
2019-05-18T04:33:01.218Z,16.49
2019-05-18T04:35:29.834Z,16.56
2019-05-18T04:37:58.312Z,16.55
2019-05-18T04:40:27.113Z,16.49
2019-05-18T04:42:55.692Z,16.52
2019-05-18T04:45:24.188Z,16.60
2019-05-18T04:47:52.672Z,16.66
2019-05-18T04:50:21.282Z,16.65
2019-05-18T04:52:49.888Z,16.67
2019-05-18T04:55:18.490Z,16.75
2019-05-18T04:57:47.186Z,17.12
2019-05-18T05:00:15.771Z,17.30
2019-05-18T05:02:44.256Z,17.41
2019-05-18T05:05:12.841Z,17.27
2019-05-18T05:07:41.436Z,17.24
2019-05-18T05:10:10.110Z,17.22
2019-05-18T05:12:38.845Z,17.35
2019-05-18T05:15:07.652Z,17.65
2019-05-18T05:17:36.315Z,17.75
2019-05-18T05:20:18.737Z,17.89
2019-05-18T05:22:35.633Z,17.91
2019-05-18T05:25:04.310Z,17.81
2019-05-18T05:27:32.891Z,17.99
2019-05-18T05:30:01.609Z,17.99
2019-05-18T05:32:30.278Z,18.03
2019-05-18T05:34:58.970Z,17.89
2019-05-18T05:37:27.541Z,17.93
2019-05-18T05:39:56.063Z,18.03
2019-05-18T05:42:24.733Z,18.09
2019-05-18T05:44:53.543Z,18.20
2019-05-18T05:47:22.041Z,18.28
2019-05-18T05:49:50.648Z,18.36
2019-05-18T05:52:19.340Z,18.45
2019-05-18T05:54:48.024Z,18.58
2019-05-18T05:57:16.712Z,18.64
2019-05-18T05:59:45.298Z,18.72
2019-05-18T06:02:13.946Z,18.70
2019-05-18T06:04:42.624Z,18.84
2019-05-18T06:07:11.130Z,18.91
2019-05-18T06:09:39.923Z,18.95
2019-05-18T06:12:08.539Z,19.15
2019-05-18T06:14:37.244Z,19.19
2019-05-18T06:17:08.424Z,19.20
2019-05-18T06:19:36.672Z,19.21
2019-05-18T06:22:05.322Z,19.41
2019-05-18T06:24:34.038Z,19.54
2019-05-18T06:27:02.656Z,19.53
2019-05-18T06:29:31.344Z,19.57
2019-05-18T06:31:59.949Z,19.59
2019-05-18T06:34:28.671Z,19.72
2019-05-18T06:36:57.276Z,19.79
2019-05-18T06:39:25.861Z,19.79
2019-05-18T06:41:54.627Z,19.82
2019-05-18T06:44:23.413Z,19.70
2019-05-18T06:46:52.009Z,19.83
2019-05-18T06:49:20.619Z,20.10
2019-05-18T06:51:48.995Z,20.21
2019-05-18T06:54:17.593Z,20.31
2019-05-18T06:56:46.293Z,20.32
2019-05-18T06:59:16.514Z,20.38
2019-05-18T07:01:45.555Z,20.38
2019-05-18T07:04:15.364Z,20.34
2019-05-18T07:06:44.237Z,20.49
2019-05-18T07:09:14.528Z,20.56
2019-05-18T07:11:42.872Z,20.59
2019-05-18T07:14:23.576Z,20.75
2019-05-18T07:16:41.278Z,20.79
2019-05-18T07:19:09.893Z,20.77
2019-05-18T07:21:38.473Z,20.82
2019-05-18T07:24:07.094Z,20.88
2019-05-18T07:26:35.802Z,21.04
2019-05-18T07:29:05.816Z,20.90
2019-05-18T07:31:34.567Z,21.00
2019-05-18T07:34:03.266Z,21.15
2019-05-18T07:36:31.950Z,21.08
2019-05-18T07:39:00.578Z,21.25
2019-05-18T07:41:29.357Z,21.33
2019-05-18T07:43:57.947Z,21.36
2019-05-18T07:46:26.640Z,21.51
2019-05-18T07:48:55.594Z,21.52
2019-05-18T07:51:36.331Z,21.56
2019-05-18T07:53:54.633Z,21.55
2019-05-18T07:56:23.331Z,21.58
2019-05-18T07:58:52.005Z,21.84
2019-05-18T08:01:20.870Z,21.95
2019-05-18T08:03:49.436Z,21.89
2019-05-18T08:06:18.026Z,21.91
2019-05-18T08:08:46.631Z,21.92
2019-05-18T08:11:14.983Z,22.10
2019-05-18T08:13:43.161Z,22.20
2019-05-18T08:16:11.338Z,22.14
2019-05-18T08:18:39.516Z,22.15
2019-05-18T08:21:07.768Z,22.05
2019-05-18T08:23:36.418Z,22.22
2019-05-18T08:26:05.016Z,22.35
2019-05-18T08:28:33.491Z,22.52
2019-05-18T08:31:02.001Z,22.41
2019-05-18T08:33:30.992Z,22.27
2019-05-18T08:35:59.575Z,22.44
2019-05-18T08:38:28.375Z,22.47
2019-05-18T08:40:56.956Z,22.54
2019-05-18T08:43:25.565Z,22.46
2019-05-18T08:45:54.148Z,22.61
2019-05-18T08:48:22.762Z,22.68
2019-05-18T08:50:51.405Z,22.77
2019-05-18T08:53:19.961Z,22.70
2019-05-18T08:55:48.590Z,22.72
2019-05-18T08:58:17.202Z,22.89
2019-05-18T09:00:45.771Z,22.93
2019-05-18T09:03:14.408Z,23.02
2019-05-18T09:05:43.021Z,23.14
2019-05-18T09:08:11.815Z,22.99
2019-05-18T09:10:40.505Z,23.11
2019-05-18T09:13:09.194Z,23.14
2019-05-18T09:15:37.775Z,23.28
2019-05-18T09:18:06.371Z,23.36
2019-05-18T09:20:35.033Z,23.42
2019-05-18T09:23:03.560Z,23.21
2019-05-18T09:25:32.159Z,23.41
2019-05-18T09:28:00.854Z,23.41
2019-05-18T09:30:29.475Z,23.41
2019-05-18T09:32:58.058Z,23.63
2019-05-18T09:35:26.439Z,23.66
2019-05-18T09:37:55.140Z,23.66
2019-05-18T09:40:23.537Z,23.58
2019-05-18T09:42:52.017Z,23.75
2019-05-18T09:45:21.103Z,23.78
2019-05-18T09:47:49.603Z,23.78
2019-05-18T09:50:18.217Z,23.68
2019-05-18T09:52:46.844Z,23.98
2019-05-18T09:55:15.738Z,24.04
2019-05-18T09:57:44.227Z,23.97
2019-05-18T10:00:13.810Z,24.14
2019-05-18T10:02:42.561Z,24.14
2019-05-18T10:05:11.063Z,24.14
2019-05-18T10:07:39.657Z,24.05
2019-05-18T10:10:08.643Z,24.09
2019-05-18T10:12:37.177Z,24.14
2019-05-18T10:15:06.130Z,24.09
2019-05-18T10:17:34.735Z,24.26
2019-05-18T10:20:03.666Z,24.47
2019-05-18T10:22:32.269Z,24.47
2019-05-18T10:25:00.882Z,24.46
2019-05-18T10:27:29.348Z,24.34
2019-05-18T10:29:57.740Z,24.34
2019-05-18T10:32:26.364Z,24.45
2019-05-18T10:34:54.946Z,24.43
2019-05-18T10:37:23.531Z,24.63
2019-05-18T10:39:51.919Z,24.76
2019-05-18T10:42:20.309Z,24.61
2019-05-18T10:44:49.050Z,24.78
2019-05-18T10:47:21.585Z,24.79
2019-05-18T10:49:50.376Z,24.92
2019-05-18T10:52:18.956Z,24.82
2019-05-18T10:54:47.680Z,25.02
2019-05-18T10:57:16.095Z,25.10
2019-05-18T10:59:44.680Z,25.13
2019-05-18T11:02:13.401Z,25.17
2019-05-18T11:04:41.924Z,25.17
2019-05-18T11:07:10.321Z,25.22
2019-05-18T11:09:39.035Z,25.27
2019-05-18T11:12:07.622Z,25.38
2019-05-18T11:14:36.112Z,25.12
2019-05-18T11:17:04.721Z,25.05
2019-05-18T11:19:33.341Z,25.15
2019-05-18T11:22:01.800Z,25.05
2019-05-18T11:24:30.492Z,25.19
2019-05-18T11:26:59.584Z,25.16
2019-05-18T11:29:28.061Z,25.12
2019-05-18T11:31:56.660Z,25.34
2019-05-18T11:34:25.179Z,25.29
2019-05-18T11:36:53.589Z,25.35
2019-05-18T11:39:22.234Z,25.15
2019-05-18T11:41:50.871Z,25.12
2019-05-18T11:44:19.359Z,25.21
2019-05-18T11:46:47.860Z,25.13
2019-05-18T11:49:16.329Z,25.14
2019-05-18T11:51:44.806Z,25.28
2019-05-18T11:54:13.413Z,25.33
2019-05-18T11:56:41.870Z,25.39
2019-05-18T11:59:10.575Z,25.43
2019-05-18T12:01:39.199Z,25.64
2019-05-18T12:04:07.749Z,25.44
2019-05-18T12:06:36.234Z,25.43
2019-05-18T12:09:05.661Z,25.40
2019-05-18T12:11:34.176Z,25.48
2019-05-18T12:14:02.787Z,25.52
2019-05-18T12:16:31.465Z,25.56
2019-05-18T12:18:59.975Z,25.55
2019-05-18T12:21:28.536Z,25.60
2019-05-18T12:23:57.140Z,25.62
2019-05-18T12:26:25.614Z,25.64
2019-05-18T12:28:54.072Z,25.60
2019-05-18T12:31:22.636Z,25.60
2019-05-18T12:33:51.237Z,25.58
2019-05-18T12:36:19.831Z,25.49
2019-05-18T12:38:48.458Z,25.64
2019-05-18T12:41:19.632Z,25.81
2019-05-18T12:43:48.420Z,25.67
2019-05-18T12:46:17.003Z,25.61
2019-05-18T12:48:45.612Z,25.67
2019-05-18T12:51:14.225Z,25.63
2019-05-18T12:53:42.596Z,25.73
2019-05-18T12:56:10.982Z,25.83
2019-05-18T12:58:39.576Z,25.70
2019-05-18T13:01:08.062Z,25.76
2019-05-18T13:03:36.552Z,25.82
2019-05-18T13:06:05.247Z,25.73
2019-05-18T13:08:33.773Z,25.68
2019-05-18T13:11:02.350Z,25.60
2019-05-18T13:13:31.023Z,25.60
2019-05-18T13:15:59.529Z,25.65
2019-05-18T13:18:28.157Z,25.68
2019-05-18T13:20:56.836Z,25.67
2019-05-18T13:23:25.422Z,25.57
2019-05-18T13:25:53.910Z,25.78
2019-05-18T13:28:22.462Z,25.68
2019-05-18T13:30:51.356Z,25.67
2019-05-18T13:33:19.936Z,25.64
2019-05-18T13:35:48.433Z,25.65
2019-05-18T13:38:17.022Z,25.60
2019-05-18T13:40:45.605Z,25.66
2019-05-18T13:43:14.396Z,25.61
2019-05-18T13:45:42.978Z,25.57
2019-05-18T13:48:11.588Z,25.62
2019-05-18T13:50:40.086Z,25.83
2019-05-18T13:53:08.771Z,25.97
2019-05-18T13:55:37.345Z,25.92
2019-05-18T13:58:05.931Z,25.89
2019-05-18T14:00:34.601Z,25.95
2019-05-18T14:03:03.211Z,26.08
2019-05-18T14:05:31.709Z,26.06
2019-05-18T14:08:00.215Z,25.79
2019-05-18T14:10:28.722Z,25.87
2019-05-18T14:12:57.300Z,25.96
2019-05-18T14:15:25.895Z,25.94
2019-05-18T14:17:54.497Z,25.93
2019-05-18T14:20:26.057Z,25.86
2019-05-18T14:22:53.326Z,25.92
2019-05-18T14:25:21.826Z,25.97
2019-05-18T14:27:50.313Z,25.81
2019-05-18T14:30:19.102Z,25.86
2019-05-18T14:32:47.672Z,25.77
2019-05-18T14:35:16.573Z,25.81
2019-05-18T14:37:45.052Z,25.86
2019-05-18T14:40:13.606Z,25.78
2019-05-18T14:42:42.281Z,25.78
2019-05-18T14:45:10.851Z,25.77
2019-05-18T14:47:39.558Z,25.74
2019-05-18T14:50:09.372Z,25.80
2019-05-18T14:52:37.951Z,25.74
2019-05-18T14:55:06.787Z,25.70
2019-05-18T14:57:35.397Z,25.76
2019-05-18T15:00:06.138Z,25.75
2019-05-18T15:02:34.644Z,25.72
2019-05-18T15:05:03.645Z,25.73
2019-05-18T15:07:32.357Z,25.74
2019-05-18T15:10:00.990Z,25.59
2019-05-18T15:12:29.692Z,25.64
2019-05-18T15:14:58.077Z,25.57
2019-05-18T15:17:26.546Z,25.65
2019-05-18T15:19:55.026Z,25.63
2019-05-18T15:22:23.712Z,25.42
2019-05-18T15:24:52.198Z,25.50
2019-05-18T15:27:20.706Z,25.63
2019-05-18T15:29:49.186Z,25.51
2019-05-18T15:32:17.785Z,25.46
2019-05-18T15:34:46.367Z,25.42
2019-05-18T15:37:14.864Z,25.53
2019-05-18T15:39:43.484Z,25.40
2019-05-18T15:42:11.993Z,25.37
2019-05-18T15:44:40.475Z,25.47
2019-05-18T15:47:09.188Z,25.47
2019-05-18T15:49:37.676Z,25.50
2019-05-18T15:52:06.285Z,25.42
2019-05-18T15:54:36.305Z,25.43
2019-05-18T15:57:04.910Z,25.35
2019-05-18T15:59:33.412Z,25.29
2019-05-18T16:02:05.814Z,25.38
2019-05-18T16:04:32.505Z,25.43
2019-05-18T16:07:01.097Z,25.42
2019-05-18T16:09:29.802Z,25.28
2019-05-18T16:11:58.404Z,25.25
2019-05-18T16:14:26.900Z,25.30
2019-05-18T16:16:55.488Z,25.18
2019-05-18T16:19:23.991Z,25.29
2019-05-18T16:21:52.579Z,25.23
2019-05-18T16:24:21.285Z,25.14
2019-05-18T16:26:49.883Z,25.11
2019-05-18T16:29:18.472Z,25.02
2019-05-18T16:31:47.067Z,25.01
2019-05-18T16:34:15.559Z,25.09
2019-05-18T16:36:44.248Z,24.98
2019-05-18T16:39:13.032Z,25.14
2019-05-18T16:41:41.510Z,25.16
2019-05-18T16:44:09.930Z,24.91
2019-05-18T16:46:38.527Z,25.01
2019-05-18T16:49:07.300Z,25.02
2019-05-18T16:51:35.769Z,24.98
2019-05-18T16:54:04.530Z,25.05
2019-05-18T16:56:35.242Z,25.01
2019-05-18T16:59:03.820Z,24.97
2019-05-18T17:01:32.412Z,24.98
2019-05-18T17:04:00.792Z,24.96
2019-05-18T17:06:29.501Z,24.87
2019-05-18T17:08:57.986Z,24.82
2019-05-18T17:11:26.481Z,24.61
2019-05-18T17:13:55.073Z,24.65
2019-05-18T17:16:23.586Z,24.71
2019-05-18T17:18:52.186Z,24.57
2019-05-18T17:21:20.684Z,24.46
2019-05-18T17:23:49.159Z,24.43
2019-05-18T17:26:17.577Z,24.15
2019-05-18T17:28:46.188Z,24.22
2019-05-18T17:31:14.683Z,24.37
2019-05-18T17:33:43.271Z,24.25
2019-05-18T17:36:11.889Z,24.27
2019-05-18T17:38:40.602Z,24.04
2019-05-18T17:41:09.139Z,23.89
2019-05-18T17:43:38.245Z,24.02
2019-05-18T17:46:07.047Z,24.07
2019-05-18T17:48:35.654Z,23.96
2019-05-18T17:51:04.149Z,23.99
2019-05-18T17:53:32.836Z,24.07
2019-05-18T17:56:01.419Z,23.94
2019-05-18T17:58:29.919Z,23.71
2019-05-18T18:00:58.535Z,23.58
2019-05-18T18:03:27.124Z,23.58
2019-05-18T18:05:55.731Z,23.67
2019-05-18T18:08:24.334Z,23.55
2019-05-18T18:10:52.978Z,23.50
2019-05-18T18:13:21.582Z,23.59
2019-05-18T18:15:50.069Z,23.48
2019-05-18T18:18:18.674Z,23.55
2019-05-18T18:20:47.282Z,23.54
2019-05-18T18:23:15.904Z,23.11
2019-05-18T18:25:44.402Z,23.09
2019-05-18T18:28:13.121Z,23.38
2019-05-18T18:30:41.734Z,23.24
2019-05-18T18:33:10.251Z,23.45
2019-05-18T18:35:39.695Z,23.19
2019-05-18T18:38:08.358Z,23.37
2019-05-18T18:40:37.106Z,23.02
2019-05-18T18:43:05.615Z,23.08
2019-05-18T18:45:34.326Z,22.92
2019-05-18T18:48:03.022Z,22.79
2019-05-18T18:50:31.520Z,22.80
2019-05-18T18:53:00.014Z,22.77
2019-05-18T18:55:28.713Z,22.81
2019-05-18T18:57:57.497Z,22.94
2019-05-18T19:00:26.024Z,22.85
2019-05-18T19:02:54.624Z,22.87
2019-05-18T19:05:23.005Z,22.85
2019-05-18T19:07:51.561Z,22.49
2019-05-18T19:10:20.364Z,22.60
2019-05-18T19:12:48.965Z,22.55
2019-05-18T19:15:18.281Z,22.54
2019-05-18T19:17:46.889Z,22.61
2019-05-18T19:20:15.530Z,22.74
2019-05-18T19:22:44.024Z,22.56
2019-05-18T19:25:13.535Z,22.15
2019-05-18T19:27:54.038Z,22.57
2019-05-18T19:30:12.957Z,22.48
2019-05-18T19:32:41.678Z,22.68
2019-05-18T19:35:10.436Z,22.67
2019-05-18T19:37:39.042Z,22.59
2019-05-18T19:40:09.309Z,22.12
2019-05-18T19:42:38.003Z,22.00
2019-05-18T19:45:07.693Z,22.12
2019-05-18T19:47:36.209Z,22.36
2019-05-18T19:50:05.450Z,22.25
2019-05-18T19:52:34.163Z,22.51
2019-05-18T19:55:03.045Z,22.26
2019-05-18T19:57:31.630Z,22.40
2019-05-18T20:00:00.131Z,22.23
2019-05-18T20:02:28.613Z,22.37
2019-05-18T20:05:07.606Z,22.21
2019-05-18T20:07:27.601Z,21.86
2019-05-18T20:09:56.132Z,21.73
2019-05-18T20:12:24.625Z,21.73
2019-05-18T20:14:53.723Z,21.98
2019-05-18T20:17:22.416Z,22.08
2019-05-18T20:19:51.013Z,21.88
2019-05-18T20:22:19.514Z,21.54
2019-05-18T20:24:48.109Z,21.74
2019-05-18T20:27:16.614Z,21.70
2019-05-18T20:29:45.232Z,21.66
2019-05-18T20:32:13.725Z,21.82
2019-05-18T20:34:42.121Z,21.74
2019-05-18T20:37:10.717Z,21.86
2019-05-18T20:39:39.306Z,21.79
2019-05-18T20:42:07.825Z,22.05
2019-05-18T20:44:36.418Z,21.71
2019-05-18T20:47:04.945Z,21.36
2019-05-18T20:49:33.413Z,21.73
2019-05-18T20:52:01.997Z,21.73
2019-05-18T20:54:30.587Z,21.60
2019-05-18T20:56:59.304Z,21.38
2019-05-18T20:59:27.929Z,21.62
2019-05-18T21:01:56.406Z,21.36
2019-05-18T21:04:24.982Z,21.57
2019-05-18T21:06:53.491Z,21.86
2019-05-18T21:09:22.062Z,21.20
2019-05-18T21:11:50.786Z,21.16
2019-05-18T21:14:19.370Z,21.30
2019-05-18T21:16:47.764Z,21.15
2019-05-18T21:19:16.370Z,21.26
2019-05-18T21:21:45.654Z,21.08
2019-05-18T21:24:14.055Z,20.95
2019-05-18T21:26:42.593Z,21.28
2019-05-18T21:29:11.181Z,21.40
2019-05-18T21:31:39.820Z,21.34
2019-05-18T21:34:08.374Z,21.13
2019-05-18T21:36:37.008Z,21.09
2019-05-18T21:39:05.508Z,20.98
2019-05-18T21:41:33.980Z,21.18
2019-05-18T21:44:02.688Z,20.98
2019-05-18T21:46:31.309Z,20.60
2019-05-18T21:48:59.906Z,20.91
2019-05-18T21:51:28.397Z,20.77
2019-05-18T21:53:56.897Z,20.53
2019-05-18T21:56:25.471Z,20.84
2019-05-18T21:58:54.100Z,20.76
2019-05-18T22:01:22.682Z,20.59
2019-05-18T22:03:51.288Z,20.77
2019-05-18T22:06:19.783Z,20.38
2019-05-18T22:08:48.315Z,20.44
2019-05-18T22:11:16.774Z,20.50
2019-05-18T22:13:45.481Z,20.87
2019-05-18T22:16:13.984Z,20.50
2019-05-18T22:18:42.475Z,20.37
2019-05-18T22:21:11.087Z,20.42
2019-05-18T22:23:39.555Z,20.50
2019-05-18T22:26:08.035Z,20.35
2019-05-18T22:28:36.619Z,20.49
2019-05-18T22:31:05.122Z,20.77
2019-05-18T22:33:33.613Z,20.63
2019-05-18T22:36:02.325Z,20.44
2019-05-18T22:38:31.117Z,20.32
2019-05-18T22:40:59.705Z,20.16
2019-05-18T22:43:28.387Z,20.31
2019-05-18T22:45:56.796Z,20.25
2019-05-18T22:48:38.902Z,20.51
2019-05-18T22:50:55.761Z,20.43
2019-05-18T22:53:24.169Z,20.14
2019-05-18T22:55:52.650Z,19.94
2019-05-18T22:58:21.247Z,19.79
2019-05-18T23:00:49.630Z,19.84
2019-05-18T23:03:18.211Z,19.71
2019-05-18T23:05:46.788Z,19.77
2019-05-18T23:08:15.248Z,19.78
2019-05-18T23:10:43.650Z,19.84
2019-05-18T23:13:12.154Z,19.70
2019-05-18T23:15:40.853Z,19.71
2019-05-18T23:18:09.433Z,19.57
2019-05-18T23:20:38.114Z,19.66
2019-05-18T23:23:06.570Z,19.63
2019-05-18T23:25:35.046Z,19.82
2019-05-18T23:28:03.625Z,19.55
2019-05-18T23:30:32.146Z,19.47
2019-05-18T23:33:00.767Z,19.57
2019-05-18T23:35:29.188Z,19.71
2019-05-18T23:37:57.737Z,19.50
2019-05-18T23:40:26.127Z,19.60
2019-05-18T23:42:54.711Z,19.86
2019-05-18T23:45:23.089Z,19.77
2019-05-18T23:47:51.674Z,19.92
2019-05-18T23:50:20.257Z,19.92
2019-05-18T23:52:48.839Z,19.46
2019-05-18T23:55:17.515Z,19.28
2019-05-18T23:57:46.102Z,19.06
